메인 페이지
METAR-TAF:

METAR-TAF

공항 :

레, 인도

위도: 34-08-09N, 경도: 077-32-47E, 고도: 3256m

METAR: 누락

시각: 03:05 (21:35 UTC)

예보

예보는 36 시간 5분 전, 09:30시(UTC)에 발표되었습니다.
예보 대상 시간: 27일 18시부터 28일 12시까지 (UTC)
서북서5kt
시정: 6000m
고도 6000ft 상공 구름 보통
고도 12000ft 상공 구름 보통
전환 중
28일 06시부터 28일 07시까지 (UTC)
서북서10kt
고도 6000ft 상공 구름 보통
고도 10000ft 상공 구름 많음
일시적
28일 08시부터 28일 12시까지 (UTC)
서북서20kt, 순간 최대 풍속 30kt

TAF: VILH 270930Z 2718/2812 29005KT 6000 SCT060 SCT120 BECMG 2806/2807 29010KT SCT060 BKN100 TEMPO 2808/2812 29020G30KT

4,000개 이상의 공항 관측 자료 및 예보 (METAR 및 TAF 보고).

지도상에서 검색 가능한 기상관측소가 노란 점과 빨간 점으로 표시되어 있습니다.

기상관측소 명을 보려면 표시 위로 마우스를 이동하세요.

날씨 관측과 예보를 보려면 클릭하세요.

지도 변경 : 확대하려면 엑스 표시가 있는 녹색 버튼, 축소하려면 빼기 표시가 있는 녹색 버튼, 다음 페이지의 지도를 보려면 녹색 화살표를 클릭하세요.


METAR-TAF: